Time;durP1;ratioP1;P1;durP2;ratioP2;P2;SDS_P1;SDS_P2;PMS_P1;PMS_P2;Temp;Humidity;BMP_temperature;BMP_pressure;BME280_temperature;BME280_humidity;BME280_pressure;Samples;Min_cycle;Max_cycle;Signal;HPM_P1;HPM_P2
2023/02/20 00:00:50;;;;;;;15.13;13.53;;;5.20;99.90;;;;;;5057480;28;20467;-69
2023/02/20 00:03:19;;;;;;;17.13;13.27;;;5.20;99.90;;;;;;5053343;28;20473;-70
2023/02/20 00:05:46;;;;;;;15.47;13.87;;;5.20;99.90;;;;;;5049554;28;20471;-69
2023/02/20 00:08:13;;;;;;;15.03;13.50;;;5.20;99.90;;;;;;5059837;28;20517;-69
2023/02/20 00:10:40;;;;;;;18.70;15.60;;;5.20;99.90;;;;;;5055238;28;20968;-69
2023/02/20 00:13:07;;;;;;;16.80;15.10;;;5.20;99.90;;;;;;5054239;28;20481;-69
2023/02/20 00:15:35;;;;;;;18.43;15.33;;;5.20;99.90;;;;;;5058885;28;20473;-69
2023/02/20 00:18:02;;;;;;;16.07;14.37;;;5.20;99.90;;;;;;5052075;28;21066;-69
2023/02/20 00:20:32;;;;;;;16.17;14.50;;;5.20;99.90;;;;;;5051076;28;20583;-69
2023/02/20 00:22:59;;;;;;;16.20;14.47;;;5.20;99.90;;;;;;5039510;28;20474;-69
2023/02/20 00:25:26;;;;;;;22.03;15.50;;;5.20;99.90;;;;;;5058394;28;20470;-69
2023/02/20 00:27:53;;;;;;;16.73;14.87;;;5.20;99.90;;;;;;5055437;28;20845;-69
2023/02/20 00:30:22;;;;;;;19.70;15.87;;;5.20;99.90;;;;;;5050756;28;20791;-69
2023/02/20 00:32:51;;;;;;;17.47;15.70;;;5.20;99.90;;;;;;5055946;28;20474;-69
2023/02/20 00:35:20;;;;;;;20.40;14.33;;;5.20;99.90;;;;;;5053643;28;20530;-69
2023/02/20 00:37:48;;;;;;;18.83;15.60;;;5.20;99.90;;;;;;5059940;28;20501;-69
2023/02/20 00:40:17;;;;;;;27.30;16.17;;;5.20;99.90;;;;;;5057280;28;21047;-69
2023/02/20 00:42:44;;;;;;;18.80;16.83;;;5.20;99.90;;;;;;5053820;28;21032;-69
2023/02/20 00:45:13;;;;;;;19.40;16.60;;;5.20;99.90;;;;;;5054487;28;20466;-69
2023/02/20 00:47:40;;;;;;;17.67;15.87;;;5.20;99.90;;;;;;5059066;28;20524;-69
2023/02/20 00:50:08;;;;;;;17.77;15.90;;;5.20;99.90;;;;;;5055115;28;20469;-69
2023/02/20 00:52:38;;;;;;;17.47;15.57;;;5.10;99.90;;;;;;5057436;28;20549;-69
2023/02/20 00:55:07;;;;;;;18.80;16.27;;;5.10;99.90;;;;;;5061076;28;20459;-69
2023/02/20 00:57:34;;;;;;;22.37;16.00;;;5.10;99.90;;;;;;5054956;28;20572;-69
2023/02/20 01:00:01;;;;;;;22.97;17.10;;;5.20;99.90;;;;;;5056026;28;20491;-69
2023/02/20 01:02:28;;;;;;;21.00;16.73;;;5.10;99.90;;;;;;5055572;28;20914;-69
2023/02/20 01:04:56;;;;;;;21.70;16.80;;;5.20;99.90;;;;;;5058689;28;20809;-70
2023/02/20 01:07:23;;;;;;;20.27;16.80;;;5.20;99.90;;;;;;5055634;28;20867;-69
2023/02/20 01:09:50;;;;;;;20.57;16.90;;;5.20;99.90;;;;;;5050825;28;20463;-69
2023/02/20 01:12:18;;;;;;;27.23;17.67;;;5.20;99.90;;;;;;5055641;28;20470;-69
2023/02/20 01:14:45;;;;;;;20.73;17.27;;;5.20;99.90;;;;;;5057894;28;20467;-69
2023/02/20 01:17:13;;;;;;;19.10;17.00;;;5.30;99.90;;;;;;5058353;28;20964;-69
2023/02/20 01:19:41;;;;;;;25.87;16.50;;;5.20;99.90;;;;;;5054533;28;20477;-69
2023/02/20 01:22:08;;;;;;;20.80;17.73;;;5.30;99.90;;;;;;5045046;28;20881;-69
2023/02/20 01:24:36;;;;;;;22.27;17.37;;;5.30;99.90;;;;;;5048447;28;20470;-69
2023/02/20 01:27:03;;;;;;;25.33;19.83;;;5.40;99.90;;;;;;5049617;28;20468;-69
2023/02/20 01:29:32;;;;;;;27.47;18.57;;;5.40;99.90;;;;;;5054084;28;20458;-69
2023/02/20 01:31:59;;;;;;;27.77;18.50;;;5.40;99.90;;;;;;5055795;28;20458;-69
2023/02/20 01:34:26;;;;;;;28.90;19.90;;;5.40;99.90;;;;;;5054205;28;20466;-69
2023/02/20 01:36:55;;;;;;;26.60;18.50;;;5.40;99.90;;;;;;5053268;28;20977;-69
2023/02/20 01:39:23;;;;;;;30.73;18.83;;;5.50;99.90;;;;;;5053348;28;20518;-69
2023/02/20 01:41:55;;;;;;;28.03;18.90;;;5.50;99.90;;;;;;5056510;28;20550;-69
2023/02/20 01:44:23;;;;;;;21.10;17.20;;;5.60;99.90;;;;;;5058764;28;20807;-69
2023/02/20 01:46:53;;;;;;;27.67;18.50;;;5.60;99.90;;;;;;5054666;28;20467;-69
2023/02/20 01:49:26;;;;;;;25.17;18.30;;;5.70;99.90;;;;;;5047169;28;20471;-69
2023/02/20 01:51:59;;;;;;;25.00;18.70;;;5.70;99.90;;;;;;5055251;28;20473;-70
2023/02/20 01:54:28;;;;;;;29.50;19.03;;;5.70;99.90;;;;;;5059099;28;20965;-69
2023/02/20 01:56:58;;;;;;;24.57;18.17;;;5.80;99.90;;;;;;5055320;28;20458;-69
2023/02/20 01:59:27;;;;;;;23.93;18.03;;;5.80;99.90;;;;;;5051040;28;20987;-69
2023/02/20 02:01:55;;;;;;;35.97;21.93;;;5.70;99.90;;;;;;5057170;28;20958;-69
2023/02/20 02:04:23;;;;;;;28.90;21.80;;;5.70;99.90;;;;;;5054333;28;20471;-69
2023/02/20 02:06:52;;;;;;;28.60;20.13;;;5.70;99.90;;;;;;5055232;28;20599;-69
2023/02/20 02:09:29;;;;;;;27.07;18.93;;;5.70;99.90;;;;;;5049644;28;20497;-69
2023/02/20 02:11:56;;;;;;;26.63;17.03;;;5.60;99.90;;;;;;5053341;28;20464;-70
2023/02/20 02:14:23;;;;;;;34.30;16.70;;;5.60;99.90;;;;;;5056281;28;20474;-68
2023/02/20 02:17:06;;;;;;;21.03;17.40;;;5.60;99.90;;;;;;5053102;28;20465;-69
2023/02/20 02:19:55;;;;;;;20.33;14.20;;;5.60;99.90;;;;;;5057736;28;20502;-69
2023/02/20 02:22:50;;;;;;;31.73;18.50;;;5.50;99.90;;;;;;5048048;28;20472;-69
2023/02/20 02:25:38;;;;;;;26.27;16.30;;;5.50;99.90;;;;;;5053012;28;20493;-69
2023/02/20 02:28:38;;;;;;;28.57;17.70;;;5.60;99.90;;;;;;5055772;28;21024;-69
2023/02/20 02:31:47;;;;;;;23.67;15.67;;;5.60;99.90;;;;;;5058424;28;20456;-69
2023/02/20 02:35:03;;;;;;;26.33;16.37;;;5.50;99.90;;;;;;4965189;28;20464;-69
2023/02/20 02:37:40;;;;;;;24.90;16.40;;;5.50;99.90;;;;;;5049273;28;20526;-69
2023/02/20 02:40:14;;;;;;;20.63;15.10;;;5.50;99.90;;;;;;5062844;28;20501;-69
2023/02/20 02:42:47;;;;;;;27.00;17.90;;;5.50;99.90;;;;;;5063280;28;20685;-69
2023/02/20 02:45:20;;;;;;;25.37;16.00;;;5.50;99.90;;;;;;5065965;28;21000;-69
2023/02/20 02:47:53;;;;;;;21.37;15.23;;;5.60;99.90;;;;;;5059555;28;20464;-68
2023/02/20 02:50:24;;;;;;;20.50;14.77;;;5.60;99.90;;;;;;5053189;28;20458;-69
2023/02/20 02:52:55;;;;;;;21.37;15.57;;;5.70;99.90;;;;;;5054215;28;20533;-69
2023/02/20 02:55:24;;;;;;;20.63;13.87;;;5.60;99.90;;;;;;5055662;28;20472;-69
2023/02/20 02:57:51;;;;;;;23.00;14.27;;;5.60;99.90;;;;;;5065615;28;20463;-69
2023/02/20 03:00:22;;;;;;;17.20;13.37;;;5.60;99.90;;;;;;5057953;28;20496;-69
2023/02/20 03:02:55;;;;;;;20.80;14.37;;;5.70;99.90;;;;;;5059607;28;20973;-69
2023/02/20 03:05:26;;;;;;;18.53;14.50;;;5.60;99.90;;;;;;5057200;28;20942;-69
2023/02/20 03:07:58;;;;;;;14.53;13.07;;;5.60;99.90;;;;;;5056435;28;20705;-69
2023/02/20 03:10:34;;;;;;;24.07;14.83;;;5.60;99.90;;;;;;5063805;28;20466;-69
2023/02/20 03:13:05;;;;;;;23.87;14.33;;;5.60;99.90;;;;;;5059240;28;20464;-69
2023/02/20 03:15:38;;;;;;;15.83;12.90;;;5.60;99.90;;;;;;5059625;28;20463;-70
2023/02/20 03:18:14;;;;;;;13.60;12.30;;;5.60;99.90;;;;;;5059357;28;21014;-69
2023/02/20 03:20:44;;;;;;;14.17;12.70;;;5.60;99.90;;;;;;5054345;28;20581;-70
2023/02/20 03:23:17;;;;;;;14.97;13.37;;;5.60;99.90;;;;;;5054583;28;20478;-69
2023/02/20 03:25:49;;;;;;;23.40;13.37;;;5.60;99.90;;;;;;5052790;28;20845;-69
2023/02/20 03:28:20;;;;;;;18.17;12.73;;;5.50;99.90;;;;;;5058849;28;20837;-69
2023/02/20 03:30:53;;;;;;;18.20;13.13;;;5.50;99.90;;;;;;5063091;28;21047;-69
2023/02/20 03:44:35;;;;;;;16.37;12.37;;;5.50;99.90;;;;;;5054534;28;21261;-69
2023/02/20 03:47:05;;;;;;;14.10;12.53;;;5.50;99.90;;;;;;5054270;28;20475;-69
2023/02/20 03:49:36;;;;;;;23.63;12.13;;;5.40;99.90;;;;;;5060629;28;20495;-69
2023/02/20 03:52:04;;;;;;;13.70;12.30;;;5.40;99.90;;;;;;5054600;28;20545;-69
2023/02/20 03:54:33;;;;;;;22.77;11.70;;;5.40;99.90;;;;;;5061471;28;20467;-68
2023/02/20 03:57:06;;;;;;;14.50;11.93;;;5.40;99.90;;;;;;5055741;28;20690;-69
2023/02/20 03:59:37;;;;;;;13.37;12.23;;;5.40;99.90;;;;;;5059749;28;20526;-68
2023/02/20 04:02:09;;;;;;;14.07;12.40;;;5.40;99.90;;;;;;5049427;28;20873;-69
2023/02/20 04:04:43;;;;;;;13.83;12.03;;;5.30;99.90;;;;;;5050632;28;20483;-69
2023/02/20 04:07:15;;;;;;;14.13;12.53;;;5.30;99.90;;;;;;5053293;28;20464;-69
2023/02/20 04:09:46;;;;;;;12.23;11.13;;;5.30;99.90;;;;;;5064801;28;21007;-69
2023/02/20 04:12:17;;;;;;;13.27;11.67;;;5.30;99.90;;;;;;5053315;28;20472;-69
2023/02/20 04:14:46;;;;;;;14.80;12.33;;;5.30;99.90;;;;;;5056225;28;20464;-69
2023/02/20 04:17:16;;;;;;;13.20;12.10;;;5.40;99.90;;;;;;5060637;28;20463;-69
2023/02/20 04:19:43;;;;;;;12.53;10.83;;;5.30;99.90;;;;;;5060729;28;20532;-69
2023/02/20 04:22:14;;;;;;;14.93;10.77;;;5.40;99.90;;;;;;5047121;28;20461;-69
2023/02/20 04:24:48;;;;;;;12.60;11.30;;;5.40;99.90;;;;;;5055453;28;20465;-69
2023/02/20 04:27:15;;;;;;;12.57;11.27;;;5.40;99.90;;;;;;5054836;28;20458;-68
2023/02/20 04:29:43;;;;;;;18.00;13.07;;;5.40;99.90;;;;;;5058868;28;20477;-69
2023/02/20 04:32:10;;;;;;;19.10;10.67;;;5.40;99.90;;;;;;5053791;28;20553;-69
2023/02/20 04:34:37;;;;;;;10.10;9.20;;;5.50;99.90;;;;;;5053935;28;20478;-69
2023/02/20 04:37:08;;;;;;;11.60;10.50;;;5.50;99.90;;;;;;5057743;28;20495;-70
2023/02/20 04:39:35;;;;;;;13.27;10.17;;;5.50;99.90;;;;;;5055701;28;20561;-69
2023/02/20 04:42:03;;;;;;;12.43;11.07;;;5.40;99.90;;;;;;5060662;28;20491;-69
2023/02/20 04:44:33;;;;;;;12.53;10.10;;;5.50;99.90;;;;;;5058354;28;20453;-69
2023/02/20 04:47:02;;;;;;;11.50;10.60;;;5.40;99.90;;;;;;5063667;28;20458;-69
2023/02/20 04:49:29;;;;;;;11.80;9.53;;;5.40;99.90;;;;;;5055797;28;20484;-69
2023/02/20 04:51:56;;;;;;;13.33;10.50;;;5.40;99.90;;;;;;5058384;28;20489;-68
2023/02/20 04:54:23;;;;;;;18.57;11.60;;;5.40;99.90;;;;;;5053863;28;20475;-69
2023/02/20 04:56:52;;;;;;;16.97;10.57;;;5.40;99.90;;;;;;5054297;28;20963;-69
2023/02/20 04:59:20;;;;;;;11.27;10.33;;;5.40;99.90;;;;;;5053607;28;20493;-69
2023/02/20 05:01:50;;;;;;;14.97;10.03;;;5.40;99.90;;;;;;5062232;28;20526;-69
2023/02/20 05:04:18;;;;;;;16.17;10.97;;;5.40;99.90;;;;;;5061288;28;20521;-69
2023/02/20 05:06:48;;;;;;;12.13;11.00;;;5.40;99.90;;;;;;5059999;28;20483;-71
2023/02/20 05:09:15;;;;;;;18.57;11.30;;;5.30;99.90;;;;;;5057155;28;20492;-69
2023/02/20 05:11:42;;;;;;;12.43;11.40;;;5.30;99.90;;;;;;5049440;28;20825;-68
2023/02/20 05:14:09;;;;;;;18.90;10.90;;;5.30;99.90;;;;;;5057244;28;20967;-68
2023/02/20 05:16:39;;;;;;;12.57;11.20;;;5.30;99.90;;;;;;5058888;28;20994;-68
2023/02/20 05:19:06;;;;;;;12.93;11.60;;;5.30;99.90;;;;;;5059374;28;20455;-68
2023/02/20 05:24:18;;;;;;;15.87;11.30;;;5.30;99.90;;;;;;5050578;28;20463;-69
2023/02/20 05:26:45;;;;;;;12.93;11.67;;;5.30;99.90;;;;;;5055322;28;20466;-69
2023/02/20 05:29:12;;;;;;;19.37;12.37;;;5.30;99.90;;;;;;5053941;28;20902;-69
2023/02/20 05:31:42;;;;;;;11.37;10.47;;;5.30;99.90;;;;;;5066648;28;21010;-69
2023/02/20 05:34:09;;;;;;;13.20;11.90;;;5.30;99.90;;;;;;5049886;28;20538;-69
2023/02/20 05:36:36;;;;;;;15.33;12.53;;;5.30;99.90;;;;;;5047239;28;20472;-69
2023/02/20 05:39:04;;;;;;;17.33;12.50;;;5.30;99.90;;;;;;5054675;28;20468;-69
2023/02/20 05:41:30;;;;;;;14.90;13.40;;;5.30;99.90;;;;;;5055893;28;20902;-69
2023/02/20 05:43:58;;;;;;;22.83;16.03;;;5.20;99.90;;;;;;5052707;28;20463;-69
2023/02/20 05:46:26;;;;;;;16.47;14.50;;;5.20;99.90;;;;;;5053460;28;20472;-68
2023/02/20 05:48:56;;;;;;;21.20;16.80;;;5.20;99.90;;;;;;5054972;28;21076;-68
2023/02/20 05:51:24;;;;;;;20.33;18.20;;;5.10;99.90;;;;;;5052511;28;20498;-69
2023/02/20 05:53:51;;;;;;;19.97;16.63;;;5.10;99.90;;;;;;5055803;28;20463;-68
2023/02/20 05:56:19;;;;;;;18.00;16.20;;;5.10;99.90;;;;;;5058034;28;20463;-69
2023/02/20 05:58:47;;;;;;;21.23;16.60;;;5.00;99.90;;;;;;5040460;28;20519;-70
2023/02/20 06:01:18;;;;;;;22.77;17.30;;;5.00;99.90;;;;;;5060797;28;20478;-69
2023/02/20 06:03:45;;;;;;;25.33;19.53;;;5.00;99.90;;;;;;5053424;28;21009;-68
2023/02/20 06:06:13;;;;;;;27.67;20.47;;;5.10;99.90;;;;;;5059995;28;20462;-69
2023/02/20 06:08:41;;;;;;;20.60;18.13;;;5.10;99.90;;;;;;5051830;28;20564;-68
2023/02/20 06:11:10;;;;;;;19.67;15.10;;;5.20;99.90;;;;;;5062608;28;20471;-69
2023/02/20 06:13:39;;;;;;;17.07;14.50;;;5.30;99.90;;;;;;5060378;28;20476;-69
2023/02/20 06:16:06;;;;;;;14.90;13.27;;;5.40;99.90;;;;;;5062541;28;20458;-69
2023/02/20 06:18:34;;;;;;;20.83;14.33;;;5.40;99.90;;;;;;5060621;28;20459;-69
2023/02/20 06:21:01;;;;;;;26.60;16.20;;;5.40;99.90;;;;;;5052208;28;20497;-69
2023/02/20 06:23:29;;;;;;;21.57;14.37;;;5.50;99.90;;;;;;5058877;28;20468;-70
2023/02/20 06:25:55;;;;;;;26.80;15.30;;;5.40;99.90;;;;;;5062452;28;20499;-69
2023/02/20 06:28:24;;;;;;;18.90;13.47;;;5.50;99.90;;;;;;5058646;28;20466;-69
2023/02/20 06:30:50;;;;;;;23.43;17.13;;;5.50;99.90;;;;;;5061686;28;20548;-69
2023/02/20 06:33:18;;;;;;;71.37;15.47;;;5.40;99.90;;;;;;5050590;28;20471;-69
2023/02/20 06:35:45;;;;;;;24.97;16.40;;;5.40;99.90;;;;;;5066861;28;20467;-70
2023/02/20 06:38:11;;;;;;;18.00;14.13;;;5.40;99.90;;;;;;5062043;28;20451;-69
2023/02/20 06:40:40;;;;;;;25.47;16.17;;;5.40;99.90;;;;;;5061204;28;20480;-70
2023/02/20 06:43:07;;;;;;;30.47;16.50;;;5.40;99.90;;;;;;5054755;28;20484;-69
2023/02/20 06:45:34;;;;;;;24.93;16.90;;;5.50;99.90;;;;;;5066041;28;20468;-71
2023/02/20 06:48:02;;;;;;;24.90;18.30;;;5.50;99.90;;;;;;5061778;28;20568;-69
2023/02/20 06:50:29;;;;;;;35.93;20.20;;;5.50;99.90;;;;;;5057005;28;20490;-69
2023/02/20 06:52:56;;;;;;;31.10;20.20;;;5.50;99.90;;;;;;5055573;28;20537;-70
2023/02/20 06:55:23;;;;;;;40.90;21.20;;;5.50;99.90;;;;;;5061169;28;20856;-70
2023/02/20 06:57:52;;;;;;;28.60;20.73;;;5.50;99.90;;;;;;5052454;28;20472;-69
2023/02/20 07:00:19;;;;;;;27.67;18.17;;;5.50;99.90;;;;;;5053832;28;20489;-70
2023/02/20 07:02:46;;;;;;;34.73;22.20;;;5.50;99.90;;;;;;5052445;28;20478;-71
2023/02/20 07:05:13;;;;;;;22.97;17.10;;;5.50;99.90;;;;;;5057796;28;21844;-70
2023/02/20 07:07:40;;;;;;;28.40;19.07;;;5.60;99.90;;;;;;5051582;28;20466;-70
2023/02/20 07:10:08;;;;;;;27.90;16.77;;;5.60;99.90;;;;;;5056684;28;20467;-70
2023/02/20 07:12:37;;;;;;;36.47;19.67;;;5.70;99.90;;;;;;5051136;28;20463;-70
2023/02/20 07:15:06;;;;;;;30.37;20.20;;;5.70;99.90;;;;;;5060388;28;20472;-70
2023/02/20 07:17:32;;;;;;;25.70;19.40;;;5.70;99.90;;;;;;5061908;28;20993;-70
2023/02/20 07:19:59;;;;;;;27.87;17.30;;;5.70;99.90;;;;;;5054732;28;20458;-69
2023/02/20 07:22:26;;;;;;;30.07;21.63;;;5.70;99.90;;;;;;5056917;28;20933;-70
2023/02/20 07:24:54;;;;;;;35.67;20.90;;;5.70;99.90;;;;;;5052990;28;20476;-70
2023/02/20 07:27:21;;;;;;;33.70;21.13;;;5.80;99.90;;;;;;5056774;28;20975;-70
2023/02/20 07:29:50;;;;;;;24.53;19.67;;;5.80;99.90;;;;;;5054982;28;20459;-70
2023/02/20 07:32:19;;;;;;;30.27;21.30;;;5.80;99.90;;;;;;5055899;28;20459;-70
2023/02/20 07:34:46;;;;;;;31.63;20.40;;;5.80;99.90;;;;;;5053550;28;20920;-70
2023/02/20 07:37:14;;;;;;;33.70;21.03;;;5.90;99.90;;;;;;5048981;28;20471;-70
2023/02/20 07:39:40;;;;;;;28.27;21.67;;;5.90;99.90;;;;;;5053735;28;20459;-71
2023/02/20 07:42:07;;;;;;;32.13;21.43;;;5.90;99.90;;;;;;5065800;28;20569;-70
2023/02/20 07:44:35;;;;;;;28.93;20.07;;;6.00;99.90;;;;;;5059790;28;20838;-70
2023/02/20 07:47:01;;;;;;;34.93;20.30;;;6.00;99.90;;;;;;5056112;28;20781;-70
2023/02/20 07:49:30;;;;;;;35.87;20.00;;;6.00;99.90;;;;;;5052086;28;20452;-70
2023/02/20 07:51:56;;;;;;;27.87;20.37;;;6.10;99.90;;;;;;5056599;28;20929;-70
2023/02/20 07:54:26;;;;;;;37.50;21.17;;;6.00;99.90;;;;;;5056889;28;20459;-70
2023/02/20 07:56:54;;;;;;;29.07;20.40;;;6.10;99.90;;;;;;5061128;28;20475;-71
2023/02/20 07:59:22;;;;;;;25.37;18.70;;;6.00;99.90;;;;;;5051289;28;20462;-71
2023/02/20 08:01:49;;;;;;;33.27;24.67;;;6.10;99.90;;;;;;5055790;28;20862;-71
2023/02/20 08:04:17;;;;;;;25.80;19.53;;;6.10;99.90;;;;;;5060291;28;20950;-71
2023/02/20 08:06:45;;;;;;;30.43;19.33;;;6.10;99.90;;;;;;5050660;28;20463;-71
2023/02/20 08:09:12;;;;;;;24.40;19.07;;;6.10;99.90;;;;;;5052809;28;21384;-71
2023/02/20 08:11:38;;;;;;;24.07;16.60;;;6.00;99.90;;;;;;5065531;28;20459;-71
2023/02/20 08:14:06;;;;;;;26.27;17.83;;;6.10;99.90;;;;;;5057384;28;20466;-71
2023/02/20 08:16:33;;;;;;;30.43;19.70;;;6.10;99.90;;;;;;5056140;28;21179;-71
2023/02/20 08:19:00;;;;;;;18.80;16.80;;;6.20;99.90;;;;;;5060464;28;20485;-71
2023/02/20 08:21:27;;;;;;;16.47;14.60;;;6.10;99.90;;;;;;5061121;28;20578;-71
2023/02/20 08:23:56;;;;;;;25.13;18.23;;;6.10;99.90;;;;;;5060435;28;20899;-71
2023/02/20 08:26:23;;;;;;;23.30;17.27;;;6.20;99.90;;;;;;5063381;28;20457;-72
2023/02/20 08:28:51;;;;;;;24.97;17.90;;;6.20;99.90;;;;;;5056499;28;20463;-71
2023/02/20 08:31:18;;;;;;;18.70;15.40;;;6.30;99.90;;;;;;5057949;28;20475;-71
2023/02/20 08:33:45;;;;;;;22.03;16.00;;;6.30;99.90;;;;;;5060454;28;20456;-71
2023/02/20 08:36:14;;;;;;;26.23;18.30;;;6.30;99.90;;;;;;5053335;28;20473;-71
2023/02/20 08:38:41;;;;;;;25.63;16.67;;;6.30;99.90;;;;;;5053747;28;20460;-71
2023/02/20 08:41:12;;;;;;;18.87;16.07;;;6.30;99.90;;;;;;5057801;28;20837;-71
2023/02/20 08:43:42;;;;;;;24.13;18.63;;;6.30;99.90;;;;;;5057849;28;20479;-71
2023/02/20 08:46:09;;;;;;;22.40;16.00;;;6.30;99.90;;;;;;5056834;28;20951;-71
2023/02/20 08:48:36;;;;;;;30.37;19.47;;;6.40;99.90;;;;;;5053816;28;20455;-71
2023/02/20 08:51:04;;;;;;;19.13;15.60;;;6.50;99.90;;;;;;5057850;28;20469;-72
2023/02/20 08:53:30;;;;;;;27.43;18.67;;;6.40;99.90;;;;;;5057542;28;20506;-71
2023/02/20 08:55:57;;;;;;;25.77;17.73;;;6.50;99.90;;;;;;5048948;28;20477;-71
2023/02/20 08:58:26;;;;;;;24.60;17.27;;;6.60;99.90;;;;;;5049352;28;20463;-70
2023/02/20 09:00:54;;;;;;;23.60;14.13;;;6.70;99.90;;;;;;5063065;28;20496;-71
2023/02/20 09:03:21;;;;;;;24.17;19.00;;;6.70;99.90;;;;;;5059622;28;20990;-71
2023/02/20 09:05:48;;;;;;;32.93;15.07;;;6.80;99.90;;;;;;5053542;28;20464;-71
2023/02/20 09:08:15;;;;;;;20.17;15.90;;;6.90;99.90;;;;;;5055090;28;20478;-71
2023/02/20 09:10:42;;;;;;;23.47;18.23;;;6.80;99.90;;;;;;5059319;28;20463;-71
2023/02/20 09:13:09;;;;;;;22.60;17.17;;;7.00;99.90;;;;;;5057072;28;20466;-71
2023/02/20 09:15:38;;;;;;;25.73;18.73;;;7.00;99.90;;;;;;5060863;28;20470;-71
2023/02/20 09:18:08;;;;;;;27.80;17.67;;;7.20;99.90;;;;;;5064485;28;20520;-71
2023/02/20 09:20:36;;;;;;;25.60;17.17;;;7.20;99.90;;;;;;5059893;28;20973;-70
2023/02/20 09:23:03;;;;;;;23.13;18.60;;;7.20;99.90;;;;;;5056586;28;20514;-71
2023/02/20 09:25:30;;;;;;;18.10;15.93;;;7.20;99.90;;;;;;5053355;28;20531;-71
2023/02/20 09:27:57;;;;;;;27.87;18.87;;;7.20;99.90;;;;;;5055080;28;20474;-70
2023/02/20 09:30:24;;;;;;;18.77;16.77;;;7.20;99.90;;;;;;5058218;28;20470;-71
2023/02/20 09:32:53;;;;;;;21.40;16.80;;;7.30;99.90;;;;;;5060549;28;20984;-71
2023/02/20 09:35:23;;;;;;;16.93;14.67;;;7.30;99.90;;;;;;5053216;28;20804;-71
2023/02/20 09:37:50;;;;;;;24.50;15.30;;;7.10;99.90;;;;;;5055502;28;20470;-71
2023/02/20 09:40:20;;;;;;;19.03;17.00;;;7.10;99.90;;;;;;5056075;28;20906;-71
2023/02/20 09:42:57;;;;;;;24.03;18.57;;;7.30;99.90;;;;;;5054639;28;20992;-71
2023/02/20 09:45:28;;;;;;;24.47;18.00;;;7.30;99.90;;;;;;5062721;28;20474;-71
2023/02/20 09:48:10;;;;;;;21.80;15.70;;;7.40;99.90;;;;;;5059362;28;20461;-71
2023/02/20 09:50:42;;;;;;;29.97;18.20;;;7.40;99.90;;;;;;5057871;28;20567;-71
2023/02/20 09:53:19;;;;;;;27.63;19.60;;;7.30;99.90;;;;;;5055562;28;20944;-71
2023/02/20 09:55:49;;;;;;;18.53;16.83;;;7.40;99.90;;;;;;5054198;28;20466;-71
2023/02/20 09:58:23;;;;;;;18.77;16.97;;;7.30;99.90;;;;;;5057282;28;20453;-71
2023/02/20 10:00:52;;;;;;;26.67;17.13;;;7.30;99.90;;;;;;5059337;28;20463;-71
2023/02/20 10:03:33;;;;;;;23.33;16.90;;;7.30;99.90;;;;;;5055602;28;20496;-71
2023/02/20 10:06:03;;;;;;;24.77;17.43;;;7.30;99.90;;;;;;5065191;28;20461;-71
2023/02/20 10:08:30;;;;;;;27.43;19.73;;;7.40;99.90;;;;;;5061478;28;20489;-71
2023/02/20 10:11:03;;;;;;;16.50;15.10;;;7.60;99.90;;;;;;5057404;28;20883;-71
2023/02/20 10:13:44;;;;;;;26.87;18.40;;;7.70;99.90;;;;;;5060016;28;20916;-71
2023/02/20 10:16:22;;;;;;;19.80;17.77;;;7.70;99.90;;;;;;5058835;28;20474;-71
2023/02/20 10:19:00;;;;;;;18.03;16.17;;;7.70;99.90;;;;;;5057884;28;20871;-71
2023/02/20 10:21:39;;;;;;;19.77;16.90;;;7.70;99.90;;;;;;5060783;28;20856;-71
2023/02/20 10:24:22;;;;;;;30.70;17.60;;;7.80;99.90;;;;;;5060770;28;20462;-71
2023/02/20 10:26:54;;;;;;;21.77;18.70;;;7.80;99.90;;;;;;5066016;28;20460;-71
2023/02/20 10:29:23;;;;;;;23.43;18.20;;;7.90;99.90;;;;;;5063772;28;20466;-71
2023/02/20 10:31:57;;;;;;;20.73;18.17;;;7.70;99.90;;;;;;5061421;28;20467;-71
2023/02/20 10:34:33;;;;;;;20.63;18.43;;;7.70;99.90;;;;;;5056498;28;20978;-71
2023/02/20 10:37:06;;;;;;;20.23;18.33;;;7.80;99.90;;;;;;5057231;28;22351;-71
2023/02/20 10:39:34;;;;;;;22.17;19.83;;;8.10;99.90;;;;;;5058694;28;20475;-71
2023/02/20 10:42:07;;;;;;;20.23;17.70;;;7.90;99.90;;;;;;5057195;28;20487;-71
2023/02/20 10:44:38;;;;;;;20.70;18.50;;;7.90;99.90;;;;;;5054835;28;20467;-71
2023/02/20 10:47:12;;;;;;;19.30;17.17;;;7.70;99.90;;;;;;5057483;28;20466;-70
2023/02/20 10:49:45;;;;;;;20.03;17.50;;;7.80;99.90;;;;;;5050518;28;20467;-71
2023/02/20 10:52:17;;;;;;;28.13;18.27;;;7.80;99.90;;;;;;5049782;28;20466;-71
2023/02/20 10:54:47;;;;;;;21.10;18.87;;;7.80;99.90;;;;;;5058718;28;20467;-71
2023/02/20 10:57:19;;;;;;;19.43;17.47;;;7.80;99.90;;;;;;5056988;28;20466;-70
2023/02/20 10:59:53;;;;;;;24.30;17.87;;;8.00;99.90;;;;;;5059327;28;20485;-71
2023/02/20 11:02:23;;;;;;;19.43;17.40;;;8.00;99.90;;;;;;5061936;28;20493;-70
2023/02/20 11:04:55;;;;;;;20.27;17.83;;;7.90;99.90;;;;;;5056256;28;20984;-70
2023/02/20 11:07:22;;;;;;;19.83;17.47;;;7.80;99.90;;;;;;5054479;28;20461;-71
2023/02/20 11:09:50;;;;;;;23.47;18.27;;;7.90;99.90;;;;;;5051341;28;20575;-70
2023/02/20 11:12:25;;;;;;;27.40;19.23;;;7.80;99.90;;;;;;5064668;28;20459;-70
2023/02/20 11:14:55;;;;;;;21.53;16.03;;;7.60;99.90;;;;;;5059559;28;20511;-70
2023/02/20 11:17:25;;;;;;;21.83;18.70;;;7.70;99.90;;;;;;5054632;28;20495;-70
2023/02/20 11:19:55;;;;;;;23.27;18.10;;;7.70;99.90;;;;;;5052963;28;20474;-70
2023/02/20 11:22:41;;;;;;;28.03;19.20;;;7.70;99.90;;;;;;5048093;28;20498;-70
2023/02/20 11:25:17;;;;;;;24.30;17.03;;;7.90;99.90;;;;;;5046301;28;20467;-70
2023/02/20 11:27:46;;;;;;;25.37;18.13;;;7.90;99.90;;;;;;5052321;28;20456;-70
2023/02/20 11:30:29;;;;;;;20.57;18.43;;;8.00;99.90;;;;;;5064211;28;20466;-70
2023/02/20 11:33:02;;;;;;;20.60;17.97;;;8.00;99.90;;;;;;5067606;28;20517;-70
2023/02/20 11:35:33;;;;;;;18.77;17.00;;;8.00;99.90;;;;;;5054064;28;20489;-70
2023/02/20 11:38:26;;;;;;;21.43;19.27;;;7.90;99.90;;;;;;5057275;28;20459;-70
2023/02/20 11:41:13;;;;;;;21.87;19.13;;;7.90;99.90;;;;;;5055067;28;20860;-70
2023/02/20 11:43:42;;;;;;;20.10;18.10;;;8.00;99.90;;;;;;5053192;28;20476;-70
2023/02/20 11:46:13;;;;;;;30.00;24.23;;;8.00;99.90;;;;;;5056430;28;20565;-70
2023/02/20 11:49:00;;;;;;;64.93;38.77;;;8.00;99.90;;;;;;5056786;28;21007;-70
2023/02/20 11:51:36;;;;;;;20.33;17.80;;;8.30;99.90;;;;;;5057377;28;20587;-70
2023/02/20 11:54:13;;;;;;;20.00;17.60;;;8.10;99.90;;;;;;5058175;28;20472;-71
2023/02/20 11:56:55;;;;;;;27.53;19.40;;;8.10;99.90;;;;;;5056358;28;20466;-71
2023/02/20 11:59:40;;;;;;;21.33;17.43;;;8.20;99.90;;;;;;5056908;28;20490;-71
2023/02/20 12:02:22;;;;;;;20.80;18.70;;;8.20;99.90;;;;;;5055610;28;20499;-71
2023/02/20 12:05:07;;;;;;;27.00;19.77;;;8.40;99.90;;;;;;5048314;28;20470;-71
2023/02/20 12:07:38;;;;;;;22.20;19.27;;;8.30;99.90;;;;;;5051955;28;21035;-71
2023/02/20 12:10:20;;;;;;;20.60;18.53;;;8.30;99.90;;;;;;5057797;28;20478;-71
2023/02/20 12:12:46;;;;;;;22.80;18.83;;;8.40;99.90;;;;;;5049809;28;20659;-71
2023/02/20 12:15:15;;;;;;;22.27;19.17;;;8.10;99.90;;;;;;5056690;28;20466;-71
2023/02/20 12:17:58;;;;;;;19.37;17.47;;;8.10;99.90;;;;;;5053812;28;21079;-72
2023/02/20 12:20:27;;;;;;;20.70;18.70;;;8.10;99.90;;;;;;5064800;28;20820;-72
2023/02/20 12:23:04;;;;;;;22.83;20.50;;;8.10;99.90;;;;;;5054978;28;21014;-71
2023/02/20 12:25:41;;;;;;;22.83;18.30;;;8.20;99.90;;;;;;5057199;28;20462;-71
2023/02/20 12:28:17;;;;;;;17.23;15.57;;;8.20;99.90;;;;;;5058130;28;20472;-71
2023/02/20 12:30:55;;;;;;;22.63;19.10;;;8.00;99.90;;;;;;5050019;28;20457;-71
2023/02/20 12:33:47;;;;;;;16.87;15.07;;;8.00;99.90;;;;;;5057020;28;20963;-71
2023/02/20 12:36:26;;;;;;;21.50;19.33;;;8.00;99.90;;;;;;5056589;28;20471;-71
2023/02/20 12:38:58;;;;;;;18.03;16.17;;;8.10;99.90;;;;;;5053807;28;20468;-72
2023/02/20 12:41:33;;;;;;;18.23;16.43;;;8.20;99.90;;;;;;5053537;28;20571;-72
2023/02/20 12:44:23;;;;;;;21.30;18.33;;;8.20;99.90;;;;;;5045646;28;20629;-72
2023/02/20 12:47:00;;;;;;;21.73;17.63;;;8.20;99.90;;;;;;5065676;28;20506;-72
2023/02/20 12:49:55;;;;;;;21.80;18.40;;;8.20;99.90;;;;;;5053072;28;20469;-72
2023/02/20 12:52:39;;;;;;;18.63;16.73;;;8.10;99.90;;;;;;5059661;28;20989;-71
2023/02/20 12:55:20;;;;;;;20.47;17.20;;;8.20;99.90;;;;;;5055530;28;21258;-72
2023/02/20 12:57:53;;;;;;;18.13;16.23;;;8.10;99.90;;;;;;5052294;28;20481;-71
2023/02/20 13:00:28;;;;;;;21.43;17.67;;;8.30;99.90;;;;;;5055047;28;20469;-71
2023/02/20 13:03:03;;;;;;;27.37;15.63;;;8.20;99.90;;;;;;5056584;28;21012;-72
2023/02/20 13:05:32;;;;;;;22.63;18.00;;;8.20;99.90;;;;;;5055775;28;20575;-72
2023/02/20 13:08:04;;;;;;;25.53;20.63;;;8.20;99.90;;;;;;5058752;28;21133;-71